createdAt,value
2019-03-17T00:01:12.583Z,42.07
2019-03-17T00:03:42.914Z,39.13
2019-03-17T00:06:14.033Z,38.20
2019-03-17T00:08:43.463Z,40.27
2019-03-17T00:11:11.085Z,35.70
2019-03-17T00:13:39.511Z,35.43
2019-03-17T00:16:06.968Z,35.70
2019-03-17T00:18:35.433Z,35.97
2019-03-17T00:21:04.861Z,35.40
2019-03-17T00:23:33.903Z,36.50
2019-03-17T00:26:03.214Z,32.37
2019-03-17T00:28:34.637Z,34.57
2019-03-17T00:31:04.959Z,33.73
2019-03-17T00:33:36.391Z,33.80
2019-03-17T00:36:04.887Z,34.93
2019-03-17T00:38:34.089Z,33.80
2019-03-17T00:41:03.817Z,32.97
2019-03-17T00:43:32.748Z,32.23
2019-03-17T00:46:01.478Z,31.83
2019-03-17T00:48:32.219Z,32.50
2019-03-17T00:51:01.808Z,29.07
2019-03-17T00:53:32.327Z,32.13
2019-03-17T00:56:01.879Z,30.93
2019-03-17T00:58:32.203Z,33.67
2019-03-17T01:01:01.896Z,28.97
2019-03-17T01:03:31.637Z,30.37
2019-03-17T01:06:01.359Z,31.93
2019-03-17T01:08:30.942Z,29.47
2019-03-17T01:11:00.463Z,28.60
2019-03-17T01:13:29.453Z,29.77
2019-03-17T01:15:58.742Z,31.53
2019-03-17T01:18:28.519Z,28.03
2019-03-17T01:20:58.130Z,27.43
2019-03-17T01:23:27.707Z,27.00
2019-03-17T01:25:57.122Z,26.27
2019-03-17T01:28:26.485Z,28.77
2019-03-17T01:30:56.364Z,27.17
2019-03-17T01:33:23.937Z,27.17
2019-03-17T01:35:53.066Z,25.73
2019-03-17T01:38:24.381Z,26.63
2019-03-17T01:40:53.433Z,27.53
2019-03-17T01:43:23.018Z,24.23
2019-03-17T01:45:52.207Z,25.73
2019-03-17T01:48:21.316Z,23.63
2019-03-17T01:50:50.670Z,26.83
2019-03-17T01:53:21.778Z,24.40
2019-03-17T01:55:53.605Z,24.40
2019-03-17T01:58:22.937Z,25.30
2019-03-17T02:00:50.461Z,25.20
2019-03-17T02:03:17.829Z,24.53
2019-03-17T02:05:45.260Z,22.67
2019-03-17T02:08:12.813Z,24.53
2019-03-17T02:10:40.431Z,24.70
2019-03-17T02:13:07.624Z,23.43
2019-03-17T02:15:35.061Z,20.87
2019-03-17T02:18:02.382Z,20.57
2019-03-17T02:20:29.728Z,26.37
2019-03-17T02:22:57.275Z,23.23
2019-03-17T02:25:24.493Z,21.77
2019-03-17T02:27:51.753Z,27.40
2019-03-17T02:30:19.069Z,30.67
2019-03-17T02:32:46.623Z,50.37
2019-03-17T02:35:13.932Z,42.23
2019-03-17T02:37:41.257Z,39.77
2019-03-17T02:40:08.503Z,35.80
2019-03-17T02:42:35.834Z,47.67
2019-03-17T02:45:03.366Z,34.37
2019-03-17T02:47:30.610Z,38.07
2019-03-17T02:49:57.946Z,35.20
2019-03-17T02:52:25.529Z,39.23
2019-03-17T02:54:52.985Z,37.37
2019-03-17T02:57:20.334Z,35.17
2019-03-17T02:59:47.697Z,33.33
2019-03-17T03:02:15.109Z,32.97
2019-03-17T03:04:42.370Z,35.57
2019-03-17T03:10:16.647Z,30.80
2019-03-17T03:12:43.905Z,35.77
2019-03-17T03:15:11.118Z,31.93
2019-03-17T03:17:38.973Z,30.93
2019-03-17T03:20:07.766Z,31.13
2019-03-17T03:22:35.401Z,31.10
2019-03-17T03:25:02.711Z,28.20
2019-03-17T03:27:30.108Z,33.30
2019-03-17T03:29:57.698Z,30.10
2019-03-17T03:32:25.034Z,29.67
2019-03-17T03:34:52.397Z,32.03
2019-03-17T03:37:19.707Z,25.17
2019-03-17T03:39:47.051Z,32.83
2019-03-17T03:42:14.404Z,32.00
2019-03-17T03:44:41.640Z,32.97
2019-03-17T03:47:08.974Z,28.20
2019-03-17T03:49:36.302Z,29.80
2019-03-17T03:52:03.628Z,28.87
2019-03-17T03:54:31.165Z,27.97
2019-03-17T03:56:58.425Z,25.70
2019-03-17T03:59:25.773Z,25.80
2019-03-17T04:01:53.205Z,25.00
2019-03-17T04:04:20.546Z,29.00
2019-03-17T04:06:47.773Z,25.33
2019-03-17T04:09:15.128Z,26.73
2019-03-17T04:11:42.496Z,25.83
2019-03-17T04:14:09.831Z,24.80
2019-03-17T04:16:37.162Z,23.00
2019-03-17T04:19:04.800Z,24.60
2019-03-17T04:21:32.005Z,23.37
2019-03-17T04:23:59.343Z,24.23
2019-03-17T04:26:26.794Z,21.70
2019-03-17T04:28:54.997Z,22.83
2019-03-17T04:31:22.345Z,21.80
2019-03-17T04:33:49.550Z,21.70
2019-03-17T04:36:17.025Z,22.70
2019-03-17T04:38:44.322Z,25.30
2019-03-17T04:41:11.652Z,21.33
2019-03-17T04:43:39.237Z,20.47
2019-03-17T04:46:06.549Z,22.93
2019-03-17T04:48:34.060Z,22.20
2019-03-17T04:51:01.497Z,22.77
2019-03-17T04:53:28.868Z,21.23
2019-03-17T04:55:56.204Z,21.00
2019-03-17T04:58:23.596Z,19.90
2019-03-17T05:00:51.007Z,19.50
2019-03-17T05:03:18.356Z,18.57
2019-03-17T05:05:45.586Z,19.40
2019-03-17T05:08:12.981Z,21.13
2019-03-17T05:10:40.313Z,18.63
2019-03-17T05:13:07.570Z,16.67
2019-03-17T05:15:34.765Z,17.17
2019-03-17T05:18:01.995Z,17.97
2019-03-17T05:20:29.325Z,18.70
2019-03-17T05:22:56.677Z,17.17
2019-03-17T05:25:24.039Z,19.67
2019-03-17T05:27:51.337Z,16.27
2019-03-17T05:30:18.673Z,18.20
2019-03-17T05:32:45.980Z,17.27
2019-03-17T05:35:13.315Z,15.60
2019-03-17T05:37:40.531Z,16.03
2019-03-17T05:40:07.918Z,15.57
2019-03-17T05:42:35.273Z,15.60
2019-03-17T05:45:02.710Z,14.07
2019-03-17T05:47:30.033Z,16.33
2019-03-17T05:49:57.393Z,16.33
2019-03-17T05:52:24.761Z,14.87
2019-03-17T05:54:52.266Z,14.47
2019-03-17T05:57:19.589Z,16.47
2019-03-17T05:59:47.026Z,13.97
2019-03-17T06:02:14.346Z,13.70
2019-03-17T06:04:41.649Z,14.37
2019-03-17T06:07:18.194Z,14.63
2019-03-17T06:09:38.716Z,14.43
2019-03-17T06:12:06.045Z,14.70
2019-03-17T06:14:33.250Z,12.93
2019-03-17T06:17:00.757Z,13.67
2019-03-17T06:19:31.025Z,15.00
2019-03-17T06:22:00.455Z,13.20
2019-03-17T06:24:28.349Z,12.27
2019-03-17T06:26:55.676Z,13.73
2019-03-17T06:29:23.009Z,11.40
2019-03-17T06:31:50.313Z,12.80
2019-03-17T06:34:17.520Z,12.63
2019-03-17T06:36:44.841Z,12.27
2019-03-17T06:39:12.058Z,10.20
2019-03-17T06:41:40.074Z,11.07
2019-03-17T06:44:08.505Z,11.77
2019-03-17T06:46:35.704Z,11.20
2019-03-17T06:49:03.040Z,9.73
2019-03-17T06:51:30.252Z,10.80
2019-03-17T06:53:57.673Z,10.10
2019-03-17T06:56:25.028Z,12.50
2019-03-17T06:58:52.235Z,11.07
2019-03-17T07:01:19.433Z,12.00
2019-03-17T07:03:46.741Z,9.57
2019-03-17T07:06:14.056Z,11.17
2019-03-17T07:08:41.261Z,10.57
2019-03-17T07:11:10.955Z,11.60
2019-03-17T07:13:38.263Z,11.60
2019-03-17T07:16:05.509Z,8.43
2019-03-17T07:18:32.715Z,9.20
2019-03-17T07:21:00.125Z,10.37
2019-03-17T07:23:27.427Z,9.33
2019-03-17T07:25:54.689Z,10.30
2019-03-17T07:28:21.993Z,10.50
2019-03-17T07:30:49.215Z,9.23
2019-03-17T07:33:16.554Z,8.90
2019-03-17T07:35:46.277Z,10.13
2019-03-17T07:38:12.849Z,9.80
2019-03-17T07:40:40.152Z,8.17
2019-03-17T07:43:07.514Z,8.33
2019-03-17T07:45:34.849Z,8.43
2019-03-17T07:48:02.249Z,8.27
2019-03-17T07:50:29.579Z,7.83
2019-03-17T07:52:57.107Z,9.07
2019-03-17T07:55:24.633Z,7.93
2019-03-17T07:57:51.964Z,7.27
2019-03-17T08:00:30.847Z,7.77
2019-03-17T08:02:48.324Z,6.97
2019-03-17T08:05:15.653Z,7.57
2019-03-17T08:07:43.176Z,7.57
2019-03-17T08:10:10.787Z,8.17
2019-03-17T08:12:38.533Z,6.97
2019-03-17T08:15:06.621Z,7.43
2019-03-17T08:17:33.946Z,6.67
2019-03-17T08:20:01.259Z,6.80
2019-03-17T08:22:28.596Z,6.70
2019-03-17T08:24:56.294Z,7.33
2019-03-17T08:27:23.681Z,6.67
2019-03-17T08:29:51.089Z,6.53
2019-03-17T08:32:18.573Z,6.33
2019-03-17T08:34:45.822Z,6.63
2019-03-17T08:37:13.141Z,7.03
2019-03-17T08:39:40.447Z,6.10
2019-03-17T08:42:08.082Z,6.00
2019-03-17T08:44:35.389Z,6.23
2019-03-17T08:47:02.857Z,6.57
2019-03-17T08:49:30.169Z,7.07
2019-03-17T08:51:57.681Z,5.57
2019-03-17T08:54:24.904Z,5.40
2019-03-17T08:56:52.206Z,5.43
2019-03-17T08:59:19.409Z,4.83
2019-03-17T09:01:47.713Z,6.53
2019-03-17T09:04:15.084Z,6.97
2019-03-17T09:06:42.384Z,5.77
2019-03-17T09:09:09.688Z,5.33
2019-03-17T09:11:37.336Z,5.33
2019-03-17T09:14:04.691Z,5.13
2019-03-17T09:16:31.984Z,5.07
2019-03-17T09:18:59.316Z,5.00
2019-03-17T09:21:26.673Z,5.67
2019-03-17T09:23:53.984Z,5.07
2019-03-17T09:26:21.587Z,4.17
2019-03-17T09:28:48.950Z,4.77
2019-03-17T09:31:16.169Z,5.70
2019-03-17T09:34:55.097Z,4.40
2019-03-17T09:37:22.489Z,4.53
2019-03-17T09:39:49.792Z,3.83
2019-03-17T09:42:18.201Z,4.50
2019-03-17T09:44:45.997Z,5.67
2019-03-17T09:47:13.316Z,4.23
2019-03-17T09:49:40.566Z,4.53
2019-03-17T09:52:07.756Z,4.17
2019-03-17T09:54:35.108Z,4.27
2019-03-17T09:57:02.636Z,4.13
2019-03-17T09:59:30.965Z,3.73
2019-03-17T10:01:58.268Z,3.63
2019-03-17T10:04:25.600Z,4.40
2019-03-17T10:06:52.804Z,4.80
2019-03-17T10:09:22.642Z,3.97
2019-03-17T10:11:49.865Z,4.87
2019-03-17T10:14:17.976Z,5.00
2019-03-17T10:16:45.283Z,3.67
2019-03-17T10:19:12.613Z,4.30
2019-03-17T10:21:39.925Z,3.60
2019-03-17T10:24:07.260Z,3.57
2019-03-17T10:26:34.664Z,4.00
2019-03-17T10:29:02.025Z,3.17
2019-03-17T10:31:29.528Z,4.30
2019-03-17T10:33:57.109Z,3.63
2019-03-17T10:36:24.325Z,3.67
2019-03-17T10:38:51.717Z,3.40
2019-03-17T10:41:19.028Z,2.63
2019-03-17T10:43:46.283Z,3.40
2019-03-17T10:46:14.024Z,3.10
2019-03-17T10:48:41.369Z,3.63
2019-03-17T10:51:08.672Z,2.87
2019-03-17T10:53:36.118Z,3.70
2019-03-17T10:56:03.481Z,2.60
2019-03-17T10:58:30.696Z,4.20
2019-03-17T11:00:58.048Z,4.00
2019-03-17T11:03:25.385Z,2.67
2019-03-17T11:05:54.523Z,2.63
2019-03-17T11:08:21.977Z,3.27
2019-03-17T11:10:49.510Z,2.67
2019-03-17T11:13:16.728Z,2.60
2019-03-17T11:15:44.056Z,2.73
2019-03-17T11:18:11.637Z,2.30
2019-03-17T11:20:39.209Z,3.00
2019-03-17T11:23:06.548Z,2.87
2019-03-17T11:25:33.919Z,2.83
2019-03-17T11:28:01.256Z,2.97
2019-03-17T11:32:06.860Z,2.97
2019-03-17T11:34:34.352Z,3.30
2019-03-17T11:37:01.680Z,2.53
2019-03-17T11:39:37.803Z,3.07
2019-03-17T11:41:58.154Z,2.53
2019-03-17T11:44:25.372Z,2.77
2019-03-17T11:46:52.688Z,2.43
2019-03-17T11:49:20.054Z,2.07
2019-03-17T11:51:47.382Z,2.60
2019-03-17T11:54:14.742Z,2.10
2019-03-17T11:56:42.170Z,2.53
2019-03-17T11:59:09.501Z,2.90
2019-03-17T12:01:36.845Z,2.60
2019-03-17T12:04:05.425Z,2.10
2019-03-17T12:06:33.013Z,2.63
2019-03-17T12:09:00.631Z,2.50
2019-03-17T12:11:27.969Z,2.07
2019-03-17T12:13:55.607Z,1.77
2019-03-17T12:16:23.090Z,1.83
2019-03-17T12:18:50.413Z,2.10
2019-03-17T12:21:17.955Z,1.77
2019-03-17T12:23:45.865Z,2.27
2019-03-17T12:26:14.185Z,2.50
2019-03-17T12:28:41.413Z,2.23
2019-03-17T12:31:08.728Z,1.93
2019-03-17T12:33:36.128Z,2.17
2019-03-17T12:36:03.732Z,1.53
2019-03-17T12:38:31.061Z,1.53
2019-03-17T12:40:58.280Z,2.00
2019-03-17T12:43:25.618Z,1.50
2019-03-17T12:45:52.933Z,1.93
2019-03-17T12:48:20.255Z,1.83
2019-03-17T12:50:47.673Z,1.90
2019-03-17T12:53:15.484Z,2.13
2019-03-17T12:55:42.988Z,1.50
2019-03-17T12:58:10.447Z,2.10
2019-03-17T13:00:38.887Z,1.43
2019-03-17T13:03:06.114Z,1.77
2019-03-17T13:05:33.374Z,1.80
2019-03-17T13:08:00.711Z,1.43
2019-03-17T13:10:28.146Z,1.50
2019-03-17T13:12:55.585Z,1.87
2019-03-17T13:15:22.909Z,1.60
2019-03-17T13:17:50.226Z,1.60
2019-03-17T13:20:17.553Z,1.50
2019-03-17T13:22:44.869Z,1.40
2019-03-17T13:25:12.188Z,1.37
2019-03-17T13:27:39.822Z,1.60
2019-03-17T13:30:08.593Z,1.37
2019-03-17T13:32:36.113Z,1.70
2019-03-17T13:35:03.473Z,2.03
2019-03-17T13:37:30.690Z,1.43
2019-03-17T13:39:58.150Z,1.17
2019-03-17T13:42:25.677Z,1.23
2019-03-17T13:44:53.233Z,1.53
2019-03-17T13:47:20.472Z,1.47
2019-03-17T13:49:47.958Z,1.60
2019-03-17T13:52:15.291Z,1.37
2019-03-17T13:54:42.809Z,1.57
2019-03-17T13:57:10.049Z,1.23
2019-03-17T13:59:38.732Z,1.33
2019-03-17T14:02:06.265Z,1.57
2019-03-17T14:04:33.477Z,1.83
2019-03-17T14:07:00.789Z,1.53
2019-03-17T14:09:28.125Z,1.10
2019-03-17T14:11:55.450Z,1.03
2019-03-17T14:14:22.890Z,1.00
2019-03-17T14:16:50.241Z,1.43
2019-03-17T14:19:17.450Z,1.87
2019-03-17T14:21:44.803Z,1.57
2019-03-17T14:24:12.257Z,1.43
2019-03-17T14:26:39.838Z,1.07
2019-03-17T14:29:13.761Z,1.03
2019-03-17T14:31:41.578Z,1.33
2019-03-17T14:34:09.939Z,1.37
2019-03-17T14:36:37.622Z,0.90
2019-03-17T14:39:06.229Z,0.97
2019-03-17T14:41:33.570Z,1.13
2019-03-17T14:44:01.074Z,0.60
2019-03-17T14:46:28.685Z,0.90
2019-03-17T14:48:56.190Z,1.33
2019-03-17T14:51:23.672Z,2.07
2019-03-17T14:53:51.111Z,1.07
2019-03-17T14:56:18.550Z,0.97
2019-03-17T14:58:45.893Z,0.87
2019-03-17T15:01:13.270Z,1.13
2019-03-17T15:03:40.721Z,1.13
2019-03-17T15:06:08.026Z,1.10
2019-03-17T15:08:35.589Z,1.13
2019-03-17T15:11:06.120Z,1.17
2019-03-17T15:13:32.474Z,1.17
2019-03-17T15:16:03.155Z,0.80
2019-03-17T15:18:29.233Z,0.90
2019-03-17T15:20:56.816Z,0.83
2019-03-17T15:23:24.178Z,0.80
2019-03-17T15:25:51.597Z,0.90
2019-03-17T15:28:19.190Z,1.17
2019-03-17T15:31:00.424Z,0.67
2019-03-17T15:33:15.450Z,0.70
2019-03-17T15:35:42.777Z,0.83
2019-03-17T15:38:10.125Z,0.70
2019-03-17T15:40:38.402Z,0.70
2019-03-17T15:43:05.905Z,0.90
2019-03-17T15:45:33.229Z,0.90
2019-03-17T15:48:00.567Z,1.00
2019-03-17T15:50:27.894Z,0.80
2019-03-17T15:52:55.275Z,0.80
2019-03-17T15:55:22.727Z,1.00
2019-03-17T15:57:51.293Z,0.80
2019-03-17T16:00:24.806Z,0.97
2019-03-17T16:02:48.177Z,0.83
2019-03-17T16:05:15.501Z,0.53
2019-03-17T16:07:42.978Z,1.27
2019-03-17T16:10:11.557Z,0.93
2019-03-17T16:12:39.449Z,0.90
2019-03-17T16:15:08.282Z,0.73
2019-03-17T16:17:35.733Z,0.70
2019-03-17T16:20:03.421Z,0.70
2019-03-17T16:22:30.754Z,0.70
2019-03-17T16:24:57.969Z,0.70
2019-03-17T16:27:25.584Z,0.70
2019-03-17T16:29:52.901Z,0.67
2019-03-17T16:32:20.435Z,0.60
2019-03-17T16:34:47.739Z,0.70
2019-03-17T16:37:15.050Z,0.57
2019-03-17T16:39:42.494Z,0.73
2019-03-17T16:42:14.097Z,0.70
2019-03-17T16:44:41.662Z,0.70
2019-03-17T16:47:08.973Z,0.70
2019-03-17T16:49:36.514Z,0.60
2019-03-17T16:52:04.223Z,1.00
2019-03-17T16:54:31.757Z,1.73
2019-03-17T16:57:00.062Z,0.70
2019-03-17T16:59:27.376Z,0.67
2019-03-17T17:01:54.869Z,0.57
2019-03-17T17:04:22.277Z,0.60
2019-03-17T17:06:49.585Z,0.80
2019-03-17T17:09:16.921Z,0.60
2019-03-17T17:11:55.512Z,1.00
2019-03-17T17:14:14.299Z,0.70
2019-03-17T17:16:41.697Z,0.40
2019-03-17T17:19:08.930Z,0.47
2019-03-17T17:21:36.462Z,0.80
2019-03-17T17:24:04.617Z,1.00
2019-03-17T17:26:37.377Z,0.70
2019-03-17T17:29:01.042Z,0.60
2019-03-17T17:31:28.350Z,0.53
2019-03-17T17:33:55.891Z,0.73
2019-03-17T17:36:23.440Z,0.50
2019-03-17T17:38:50.718Z,0.80
2019-03-17T17:41:18.059Z,0.77
2019-03-17T17:43:46.452Z,0.53
2019-03-17T17:46:13.738Z,0.80
2019-03-17T17:48:41.269Z,0.50
2019-03-17T17:51:08.802Z,0.60
2019-03-17T17:53:36.026Z,0.70
2019-03-17T17:56:03.333Z,0.50
2019-03-17T17:58:31.650Z,0.60
2019-03-17T18:00:59.010Z,0.60
2019-03-17T18:03:27.410Z,0.50
2019-03-17T18:05:54.721Z,0.80
2019-03-17T18:08:22.030Z,0.63
2019-03-17T18:10:49.333Z,0.60
2019-03-17T18:13:16.643Z,0.50
2019-03-17T18:15:44.032Z,0.50
2019-03-17T18:18:11.345Z,0.60
2019-03-17T18:20:39.521Z,0.60
2019-03-17T18:23:17.168Z,0.70
2019-03-17T18:25:36.095Z,0.70
2019-03-17T18:28:03.738Z,0.67
2019-03-17T18:30:30.950Z,0.77
2019-03-17T18:32:58.269Z,0.53
2019-03-17T18:35:25.585Z,0.50
2019-03-17T18:37:54.458Z,0.50
2019-03-17T18:40:21.918Z,0.40
2019-03-17T18:42:51.263Z,0.50
2019-03-17T18:45:18.889Z,0.40
2019-03-17T18:47:46.228Z,0.40
2019-03-17T18:50:20.096Z,0.60
2019-03-17T18:52:43.138Z,0.60
2019-03-17T18:55:14.738Z,0.60
2019-03-17T18:57:42.293Z,0.40
2019-03-17T19:00:12.162Z,0.40
2019-03-17T19:02:40.688Z,0.40
2019-03-17T19:05:08.154Z,0.33
2019-03-17T19:07:37.502Z,0.40
2019-03-17T19:10:05.105Z,0.50
2019-03-17T19:12:44.618Z,0.60
2019-03-17T19:15:01.773Z,0.60
2019-03-17T19:17:29.067Z,0.80
2019-03-17T19:19:56.280Z,0.50
2019-03-17T19:22:23.810Z,0.50
2019-03-17T19:24:51.299Z,0.30
2019-03-17T19:27:18.774Z,0.47
2019-03-17T19:29:46.101Z,0.40
2019-03-17T19:32:13.654Z,0.40
2019-03-17T19:34:41.183Z,0.47
2019-03-17T19:37:08.525Z,1.07
2019-03-17T19:39:36.076Z,0.37
2019-03-17T19:42:03.412Z,0.50
2019-03-17T19:44:30.977Z,0.57
2019-03-17T19:46:58.309Z,0.60
2019-03-17T19:49:25.833Z,1.13
2019-03-17T19:51:53.181Z,0.40
2019-03-17T19:54:20.970Z,0.40
2019-03-17T19:56:49.931Z,0.63
2019-03-17T19:59:17.915Z,0.40
2019-03-17T20:01:45.465Z,0.40
2019-03-17T20:04:12.794Z,0.50
2019-03-17T20:06:40.198Z,0.30
2019-03-17T20:09:07.546Z,0.93
2019-03-17T20:11:34.802Z,0.40
2019-03-17T20:14:02.344Z,0.43
2019-03-17T20:16:29.705Z,0.87
2019-03-17T20:18:57.226Z,0.50
2019-03-17T20:21:24.533Z,0.43
2019-03-17T20:23:51.853Z,0.73
2019-03-17T20:26:19.062Z,0.60
2019-03-17T20:28:46.592Z,0.67
2019-03-17T20:31:14.006Z,0.60
2019-03-17T20:33:41.229Z,0.40
2019-03-17T20:36:08.776Z,0.50
2019-03-17T20:38:36.333Z,0.40
2019-03-17T20:41:05.408Z,0.40
2019-03-17T20:43:35.215Z,0.70
2019-03-17T20:46:01.752Z,0.93
2019-03-17T20:48:29.273Z,0.50
2019-03-17T20:50:59.117Z,0.43
2019-03-17T20:53:25.857Z,0.30
2019-03-17T20:55:53.222Z,0.50
2019-03-17T20:58:20.533Z,0.57
2019-03-17T21:00:47.850Z,0.60
2019-03-17T21:03:15.548Z,0.47
2019-03-17T21:05:42.869Z,0.40
2019-03-17T21:08:10.205Z,0.47
2019-03-17T21:10:38.230Z,0.40
2019-03-17T21:13:05.549Z,0.20
2019-03-17T21:15:32.993Z,0.40
2019-03-17T21:18:00.537Z,0.80
2019-03-17T21:20:27.869Z,0.67
2019-03-17T21:22:55.185Z,0.30
2019-03-17T21:25:22.602Z,0.40
2019-03-17T21:27:50.166Z,0.30
2019-03-17T21:30:18.810Z,0.30
2019-03-17T21:32:46.633Z,0.63
2019-03-17T21:35:14.153Z,0.30
2019-03-17T21:37:41.479Z,0.50
2019-03-17T21:40:08.966Z,0.50
2019-03-17T21:42:36.436Z,0.60
2019-03-17T21:45:04.009Z,0.40
2019-03-17T21:47:32.414Z,0.47
2019-03-17T21:49:59.809Z,0.40
2019-03-17T21:52:27.422Z,0.80
2019-03-17T21:54:54.785Z,0.40
2019-03-17T21:57:24.261Z,0.40
2019-03-17T21:59:53.942Z,0.40
2019-03-17T22:02:21.530Z,0.40
2019-03-17T22:04:50.142Z,0.70
2019-03-17T22:07:18.874Z,0.40
2019-03-17T22:09:47.885Z,0.63
2019-03-17T22:12:16.385Z,0.30
2019-03-17T22:14:44.195Z,0.50
2019-03-17T22:17:11.709Z,0.50
2019-03-17T22:19:39.321Z,0.60
2019-03-17T22:22:09.009Z,0.50
2019-03-17T22:24:36.403Z,0.43
2019-03-17T22:27:03.717Z,0.50
2019-03-17T22:29:31.035Z,0.63
2019-03-17T22:31:58.346Z,0.50
2019-03-17T22:34:25.669Z,0.47
2019-03-17T22:36:53.089Z,0.40
2019-03-17T22:39:21.260Z,0.60
2019-03-17T22:41:51.072Z,0.40
2019-03-17T22:44:24.398Z,0.40
2019-03-17T22:46:49.181Z,0.30
2019-03-17T22:49:16.414Z,0.50
2019-03-17T22:51:43.776Z,0.30
2019-03-17T22:54:11.139Z,0.40
2019-03-17T22:56:38.818Z,0.50
2019-03-17T22:59:06.115Z,0.50
2019-03-17T23:01:33.654Z,0.70
2019-03-17T23:04:01.012Z,0.33
2019-03-17T23:06:28.222Z,0.50
2019-03-17T23:08:55.539Z,0.40
2019-03-17T23:11:22.846Z,0.20
2019-03-17T23:13:50.214Z,0.40
2019-03-17T23:16:17.546Z,0.63
2019-03-17T23:18:44.874Z,0.30
2019-03-17T23:21:12.102Z,1.57
2019-03-17T23:23:39.619Z,1.03
2019-03-17T23:26:07.076Z,1.80
2019-03-17T23:28:35.423Z,0.90
2019-03-17T23:31:02.733Z,1.60
2019-03-17T23:33:30.140Z,1.50
2019-03-17T23:35:57.695Z,0.60
2019-03-17T23:38:24.910Z,1.03
2019-03-17T23:40:52.337Z,0.50
2019-03-17T23:43:19.739Z,1.53
2019-03-17T23:45:47.090Z,1.90
2019-03-17T23:48:14.293Z,0.97
2019-03-17T23:50:41.546Z,0.60
2019-03-17T23:53:08.846Z,0.60
2019-03-17T23:55:36.177Z,0.43
2019-03-17T23:58:03.494Z,1.10
